Time;durP1;ratioP1;P1;durP2;ratioP2;P2;SDS_P1;SDS_P2;PMS_P1;PMS_P2;Temp;Humidity;BMP_temperature;BMP_pressure;BME280_temperature;BME280_humidity;BME280_pressure;Samples;Min_cycle;Max_cycle;Signal;HPM_P1;HPM_P2
2022/08/21 00:01:55;;;;;;;39.72;24.48;;;;;;;18.01;45.38;100368.56;5088149;28;20047;-43
2022/08/21 00:04:22;;;;;;;39.60;23.88;;;;;;;17.99;45.42;100370.44;5090246;28;20044;-42
2022/08/21 00:06:49;;;;;;;36.30;23.98;;;;;;;17.98;45.51;100362.63;5088969;28;20118;-43
2022/08/21 00:09:15;;;;;;;42.63;23.98;;;;;;;17.95;45.60;100362.81;5088995;28;20510;-42
2022/08/21 00:11:41;;;;;;;41.10;24.38;;;;;;;17.93;45.79;100347.09;5089858;28;20074;-43
2022/08/21 00:14:08;;;;;;;38.47;25.60;;;;;;;17.90;45.72;100354.31;5088726;28;20092;-44
2022/08/21 00:16:34;;;;;;;38.65;25.02;;;;;;;17.88;45.68;100361.44;5072068;28;20055;-43
2022/08/21 00:19:00;;;;;;;46.03;25.75;;;;;;;17.84;45.97;100352.88;5089494;28;20039;-42
2022/08/21 00:21:26;;;;;;;36.42;23.55;;;;;;;17.78;45.90;100354.03;5090027;28;20515;-43
2022/08/21 00:23:52;;;;;;;40.72;25.45;;;;;;;17.79;45.96;100358.34;5067821;28;20079;-43
2022/08/21 00:26:18;;;;;;;42.15;25.25;;;;;;;17.78;46.21;100366.34;5086441;28;20043;-42
2022/08/21 00:28:45;;;;;;;35.33;25.20;;;;;;;17.78;46.17;100366.34;5089874;28;20040;-42
2022/08/21 00:31:12;;;;;;;39.13;25.13;;;;;;;17.76;46.04;100353.25;5089896;28;20036;-42
2022/08/21 00:33:38;;;;;;;42.60;25.52;;;;;;;17.76;46.27;100350.63;5088290;28;20112;-43
2022/08/21 00:36:05;;;;;;;41.72;26.20;;;;;;;17.63;46.33;100325.91;5090480;28;20512;-41
2022/08/21 00:38:30;;;;;;;45.10;26.25;;;;;;;17.75;46.21;100346.28;5092804;28;20200;-41
2022/08/21 00:40:59;;;;;;;42.85;26.55;;;;;;;17.74;45.97;100346.38;5092863;28;20051;-43
2022/08/21 00:43:28;;;;;;;45.50;26.73;;;;;;;17.71;46.39;100341.28;5072295;28;20051;-44
2022/08/21 00:45:55;;;;;;;45.00;26.75;;;;;;;17.70;46.28;100348.31;5073850;28;20039;-42
2022/08/21 00:48:21;;;;;;;42.33;25.40;;;;;;;17.67;46.11;100345.84;5093650;28;20047;-44
2022/08/21 00:51:00;;;;;;;41.05;25.67;;;;;;;17.64;46.63;100345.16;5094059;28;20038;-42
2022/08/21 00:53:27;;;;;;;44.88;26.10;;;;;;;17.62;46.41;100339.16;5092292;28;20515;-43
2022/08/21 00:55:53;;;;;;;45.78;26.05;;;;;;;17.61;46.43;100338.28;5091816;28;20036;-44
2022/08/21 00:58:19;;;;;;;41.30;25.63;;;;;;;17.55;46.71;100333.31;5071968;28;20067;-43
2022/08/21 01:00:50;;;;;;;42.30;25.13;;;;;;;17.55;46.59;100342.97;5080332;28;20135;-42
2022/08/21 01:03:21;;;;;;;41.33;25.73;;;;;;;17.53;46.71;100339.59;5093096;28;20040;-43
2022/08/21 01:05:47;;;;;;;44.03;25.27;;;;;;;17.31;46.84;100316.19;5092577;28;20507;-42
2022/08/21 01:08:16;;;;;;;44.28;24.48;;;;;;;17.44;46.76;100335.66;5075443;28;20123;-42
2022/08/21 01:10:42;;;;;;;40.80;24.97;;;;;;;17.26;46.65;100310.34;5092449;28;20032;-43
2022/08/21 01:13:10;;;;;;;40.92;25.20;;;;;;;17.12;47.07;100302.28;5074100;28;20434;-42
2022/08/21 01:15:39;;;;;;;44.45;25.33;;;;;;;17.33;47.16;100341.47;5090356;28;20123;-43
2022/08/21 01:18:05;;;;;;;;;;;;;;;17.32;47.09;100344.19;5093154;28;20580;-43
2022/08/21 01:20:31;;;;;;;42.20;24.85;;;;;;;17.27;47.01;100351.47;5093373;28;19920;-44
2022/08/21 01:22:57;;;;;;;40.60;24.63;;;;;;;17.24;46.88;100347.19;5071090;28;20094;-44
2022/08/21 01:25:25;;;;;;;44.75;24.00;;;;;;;17.03;46.92;100314.13;5073518;28;21116;-44
2022/08/21 01:27:51;;;;;;;38.28;24.73;;;;;;;17.23;47.34;100348.13;5093071;28;20127;-41
2022/08/21 01:30:21;;;;;;;39.90;24.45;;;;;;;17.22;47.33;100351.66;5085228;28;20579;-41
2022/08/21 01:32:47;;;;;;;45.70;24.38;;;;;;;17.20;47.27;100347.44;5061191;28;20131;-43
2022/08/21 01:35:14;;;;;;;36.47;23.38;;;;;;;17.19;47.26;100348.38;5081860;28;20036;-42
2022/08/21 01:37:40;;;;;;;40.72;24.30;;;;;;;17.18;47.31;100342.25;5072545;28;20040;-41
2022/08/21 01:40:08;;;;;;;40.10;23.58;;;;;;;17.16;47.19;100346.75;5073597;28;20311;-42
2022/08/21 01:42:34;;;;;;;35.28;23.45;;;;;;;16.81;47.36;100280.22;5089631;28;20059;-42
2022/08/21 01:44:59;;;;;;;42.22;25.08;;;;;;;16.97;47.14;100317.06;5082811;28;20104;-43
2022/08/21 01:47:25;;;;;;;39.10;23.27;;;;;;;16.93;47.40;100313.75;5089201;28;20044;-42
2022/08/21 01:49:51;;;;;;;39.25;23.67;;;;;;;17.09;47.24;100341.88;5081953;28;20055;-43
2022/08/21 01:52:18;;;;;;;38.15;23.23;;;;;;;17.08;47.27;100341.03;5091759;28;20131;-43
2022/08/21 01:54:43;;;;;;;41.40;23.73;;;;;;;17.06;47.39;100342.88;5090940;28;20142;-43
2022/08/21 01:57:09;;;;;;;41.78;24.02;;;;;;;17.06;47.08;100336.78;5091873;28;20070;-42
2022/08/21 01:59:35;;;;;;;38.08;23.15;;;;;;;17.05;47.22;100342.97;5090899;28;20101;-43
2022/08/21 02:02:01;;;;;;;44.88;22.98;;;;;;;16.85;47.51;100299.31;5092648;28;20193;-43
2022/08/21 02:04:28;;;;;;;36.78;21.92;;;;;;;17.00;47.59;100331.84;5088719;28;20126;-42
2022/08/21 02:06:53;;;;;;;36.58;22.92;;;;;;;17.03;47.62;100342.19;5091571;28;20169;-42
2022/08/21 02:09:21;;;;;;;31.55;21.17;;;;;;;16.99;47.50;100344.13;5091346;28;20059;-42
2022/08/21 02:11:47;;;;;;;39.30;23.48;;;;;;;16.98;47.40;100341.56;5091676;28;20059;-43
2022/08/21 02:14:14;;;;;;;37.42;22.27;;;;;;;16.97;47.71;100347.72;5092398;28;20032;-42
2022/08/21 02:16:42;;;;;;;36.33;22.75;;;;;;;16.96;47.54;100346.06;5108531;28;20070;-43
2022/08/21 02:19:08;;;;;;;37.67;21.98;;;;;;;16.94;47.60;100360.13;5091218;28;20040;-41
2022/08/21 02:21:34;;;;;;;35.65;22.30;;;;;;;16.95;47.89;100358.34;5090614;28;20523;-41
2022/08/21 02:24:00;;;;;;;33.72;22.05;;;;;;;16.94;47.99;100357.50;5091681;28;20090;-42
2022/08/21 02:26:26;;;;;;;38.78;23.73;;;;;;;16.94;47.84;100356.63;5091399;28;20047;-43
2022/08/21 02:28:52;;;;;;;35.40;22.23;;;;;;;16.92;47.66;100363.72;5070638;28;20052;-44
2022/08/21 02:31:18;;;;;;;36.05;22.15;;;;;;;16.91;47.87;100356.78;5090905;28;20078;-42
2022/08/21 02:33:43;;;;;;;38.80;20.42;;;;;;;16.90;47.84;100357.72;5091356;28;20039;-42
2022/08/21 02:36:10;;;;;;;37.35;22.08;;;;;;;16.89;48.07;100353.38;5091984;28;20146;-43
2022/08/21 02:38:38;;;;;;;40.15;22.20;;;;;;;16.71;47.76;100331.50;5090809;28;20047;-42
2022/08/21 02:41:06;;;;;;;33.67;22.02;;;;;;;16.71;47.99;100325.38;5090425;28;20040;-42
2022/08/21 02:43:33;;;;;;;37.25;22.15;;;;;;;16.89;47.98;100358.66;5089422;28;20056;-42
2022/08/21 02:45:58;;;;;;;43.08;22.65;;;;;;;16.91;47.75;100355.00;5089042;28;20052;-43
2022/08/21 02:48:29;;;;;;;39.03;21.73;;;;;;;16.94;47.91;100354.88;5091307;28;20504;-42
2022/08/21 02:51:01;;;;;;;38.88;22.50;;;;;;;16.96;47.71;100354.75;5106722;28;20675;-43
2022/08/21 02:53:27;;;;;;;36.95;21.63;;;;;;;16.98;47.78;100360.81;5089574;28;20150;-42
2022/08/21 02:55:53;;;;;;;36.40;22.27;;;;;;;16.85;47.53;100343.97;5090078;28;20069;-42
2022/08/21 02:58:24;;;;;;;34.10;22.23;;;;;;;17.04;47.76;100362.28;5090646;28;20071;-42
2022/08/21 03:00:50;;;;;;;37.40;22.27;;;;;;;17.05;47.84;100366.59;5071869;28;20538;-44
2022/08/21 03:03:17;;;;;;;40.92;22.20;;;;;;;16.90;47.52;100329.66;5091295;28;20043;-42
2022/08/21 03:05:43;;;;;;;40.10;23.10;;;;;;;17.06;47.43;100353.38;5089304;28;20071;-43
2022/08/21 03:08:11;;;;;;;37.70;22.25;;;;;;;16.96;47.75;100332.94;5089868;28;20060;-42
2022/08/21 03:10:42;;;;;;;37.45;21.50;;;;;;;16.94;47.53;100323.34;5091528;28;20044;-42
2022/08/21 03:13:08;;;;;;;39.08;23.77;;;;;;;17.19;47.70;100361.50;5091223;28;20424;-44
2022/08/21 03:15:34;;;;;;;41.67;23.52;;;;;;;17.07;47.61;100338.47;5090848;28;20043;-43
2022/08/21 03:18:01;;;;;;;36.33;22.65;;;;;;;17.24;47.86;100368.22;5091172;28;20097;-45
2022/08/21 03:20:28;;;;;;;37.83;23.02;;;;;;;17.29;47.71;100373.25;5091104;28;20080;-43
2022/08/21 03:22:55;;;;;;;36.67;23.02;;;;;;;17.31;47.79;100367.00;5089742;28;20476;-42
2022/08/21 03:25:22;;;;;;;35.88;22.90;;;;;;;17.35;47.68;100373.78;5090879;28;20123;-43
2022/08/21 03:27:48;;;;;;;36.25;22.90;;;;;;;17.38;47.74;100376.25;5090808;28;20508;-43
2022/08/21 03:30:15;;;;;;;38.40;22.73;;;;;;;17.45;47.65;100379.41;5089963;28;20044;-42
2022/08/21 03:32:41;;;;;;;37.15;23.95;;;;;;;17.48;47.63;100381.06;5090716;28;20047;-43
2022/08/21 03:35:08;;;;;;;40.08;22.98;;;;;;;17.54;47.64;100375.47;5089486;28;20047;-42
2022/08/21 03:37:35;;;;;;;41.35;24.42;;;;;;;17.61;47.45;100379.50;5089346;28;20044;-44
2022/08/21 03:40:04;;;;;;;37.45;23.15;;;;;;;17.50;47.44;100348.47;5088750;28;20121;-42
2022/08/21 03:42:30;;;;;;;39.80;24.60;;;;;;;17.71;47.12;100375.47;5089291;28;20039;-44
2022/08/21 03:44:56;;;;;;;39.92;25.17;;;;;;;17.79;46.85;100375.94;5085795;28;20546;-42
2022/08/21 03:47:22;;;;;;;42.78;25.13;;;;;;;17.86;46.93;100379.06;5080019;28;20694;-43
2022/08/21 03:49:48;;;;;;;35.63;23.45;;;;;;;17.86;46.83;100364.13;5088477;28;20400;-43
2022/08/21 03:52:14;;;;;;;42.88;27.17;;;;;;;17.94;46.68;100385.63;5090543;28;20059;-43
2022/08/21 03:54:41;;;;;;;47.70;26.15;;;;;;;17.95;45.92;100371.53;5090446;28;20039;-43
2022/08/21 03:57:08;;;;;;;44.58;25.33;;;;;;;18.05;45.81;100387.69;5089144;28;20420;-45
2022/08/21 03:59:36;;;;;;;41.17;25.10;;;;;;;18.15;45.73;100381.84;5090396;28;20135;-44
2022/08/21 04:02:04;;;;;;;44.87;25.53;;;;;;;18.21;45.64;100370.97;5089546;28;20353;-42
2022/08/21 04:04:30;;;;;;;40.40;25.17;;;;;;;18.26;45.56;100369.88;5088913;28;20035;-43
2022/08/21 04:06:59;;;;;;;46.95;25.13;;;;;;;18.35;45.64;100375.50;5090427;28;20039;-45
2022/08/21 04:09:25;;;;;;;43.45;26.60;;;;;;;18.14;45.63;100324.88;5088859;28;20035;-43
2022/08/21 04:11:52;;;;;;;41.63;25.25;;;;;;;18.12;44.62;100320.63;5088943;28;20032;-43
2022/08/21 04:14:18;;;;;;;44.83;26.60;;;;;;;18.40;45.02;100343.63;5088958;28;20043;-43
2022/08/21 04:16:44;;;;;;;42.30;25.88;;;;;;;18.59;44.17;100368.88;5090447;28;20040;-42
2022/08/21 04:19:12;;;;;;;45.45;27.70;;;;;;;18.66;43.98;100366.75;5061199;28;20159;-42
2022/08/21 04:21:41;;;;;;;47.60;27.90;;;;;;;18.75;43.83;100368.84;5070232;28;20068;-44
2022/08/21 04:24:09;;;;;;;45.13;26.63;;;;;;;18.84;43.81;100367.50;5087151;28;20043;-41
2022/08/21 04:26:36;;;;;;;45.92;26.67;;;;;;;18.93;43.91;100369.59;5071673;28;20097;-42
2022/08/21 04:29:05;;;;;;;45.83;27.30;;;;;;;19.02;43.88;100375.19;5089751;28;20617;-41
2022/08/21 04:31:31;;;;;;;;;;;;;;;19.11;43.74;100370.28;5084017;28;20089;-42
2022/08/21 04:33:57;;;;;;;49.17;27.58;;;;;;;19.12;43.37;100364.94;5089221;28;19916;-44
2022/08/21 04:36:24;;;;;;;48.78;28.85;;;;;;;19.14;42.48;100367.50;5088454;28;20038;-42
2022/08/21 04:38:49;;;;;;;43.40;27.65;;;;;;;19.18;42.38;100363.72;5088183;28;20039;-43
2022/08/21 04:41:15;;;;;;;45.50;28.58;;;;;;;19.21;41.93;100369.66;5088324;28;20415;-41
2022/08/21 04:43:42;;;;;;;47.33;28.75;;;;;;;19.23;41.63;100364.31;5086315;28;20131;-41
2022/08/21 04:46:08;;;;;;;48.00;28.13;;;;;;;19.28;41.67;100372.78;5089720;28;20065;-43
2022/08/21 04:48:33;;;;;;;50.53;30.85;;;;;;;19.28;41.46;100373.66;5089500;28;20043;-41
2022/08/21 04:51:35;;;;;;;44.25;29.50;;;;;;;19.28;41.09;100380.69;5088319;28;20043;-41
2022/08/21 04:54:03;;;;;;;49.28;28.92;;;;;;;19.34;41.39;100382.97;5011033;28;20117;-43
2022/08/21 04:56:37;;;;;;;48.05;30.50;;;;;;;19.48;41.28;100374.28;5062513;28;20499;-42
2022/08/21 04:59:06;;;;;;;41.35;28.33;;;;;;;19.48;41.09;100356.66;5089616;28;20131;-41
2022/08/21 05:01:37;;;;;;;45.97;29.65;;;;;;;19.65;40.85;100379.38;5089788;28;20032;-44
2022/08/21 05:04:04;;;;;;;50.58;31.38;;;;;;;19.70;40.43;100380.81;5089870;28;20040;-44
2022/08/21 05:06:31;;;;;;;48.45;31.73;;;;;;;19.69;40.21;100381.75;5086906;28;20580;-42
2022/08/21 05:08:58;;;;;;;49.00;30.23;;;;;;;19.75;40.04;100365.53;5071076;28;20048;-42
2022/08/21 05:11:24;;;;;;;51.00;31.90;;;;;;;19.86;40.17;100371.00;5090018;28;20059;-43
2022/08/21 05:13:50;;;;;;;49.97;32.35;;;;;;;19.84;39.91;100367.59;5087543;28;20789;-44
2022/08/21 05:16:16;;;;;;;60.17;33.65;;;;;;;19.69;39.75;100339.53;5089453;28;20043;-45
2022/08/21 05:18:42;;;;;;;49.40;31.80;;;;;;;19.92;39.73;100366.28;5087692;28;20536;-45
2022/08/21 05:21:11;;;;;;;51.60;31.65;;;;;;;20.02;39.78;100368.28;5087647;28;20052;-43
2022/08/21 05:23:37;;;;;;;51.00;31.90;;;;;;;20.08;39.61;100361.75;5089406;28;20405;-42
2022/08/21 05:26:04;;;;;;;54.20;32.60;;;;;;;20.16;39.43;100364.75;5091976;28;20043;-42
2022/08/21 05:28:31;;;;;;;51.20;33.15;;;;;;;20.27;39.42;100354.38;5093018;28;20504;-44
2022/08/21 05:30:57;;;;;;;50.25;31.92;;;;;;;20.40;39.31;100359.75;5092182;28;20483;-43
2022/08/21 05:33:23;;;;;;;46.00;32.65;;;;;;;20.54;38.85;100360.56;5092637;28;20105;-42
2022/08/21 05:35:52;;;;;;;48.13;32.42;;;;;;;20.57;38.32;100355.06;5093090;28;20520;-43
2022/08/21 05:38:19;;;;;;;49.55;33.13;;;;;;;20.58;38.21;100362.06;5092796;28;20458;-43
2022/08/21 05:40:46;;;;;;;53.33;33.90;;;;;;;20.65;38.12;100373.06;5093066;28;20097;-42
2022/08/21 05:43:12;;;;;;;51.25;32.17;;;;;;;20.58;37.99;100334.78;5092729;28;20043;-42
2022/08/21 05:45:38;;;;;;;56.35;33.67;;;;;;;20.59;37.67;100339.97;5091240;28;20048;-45
2022/08/21 05:48:08;;;;;;;52.78;33.47;;;;;;;20.85;37.61;100366.47;5092532;28;20070;-44
2022/08/21 05:50:34;;;;;;;50.17;32.67;;;;;;;20.93;37.44;100362.41;5103381;28;20581;-43
2022/08/21 05:53:00;;;;;;;45.90;33.33;;;;;;;21.07;37.20;100367.59;5092927;28;20482;-44
2022/08/21 05:55:26;;;;;;;48.25;31.90;;;;;;;21.05;37.08;100350.13;5071379;28;20524;-43
2022/08/21 05:57:52;;;;;;;49.55;32.90;;;;;;;21.18;37.08;100359.00;5090168;28;20093;-45
2022/08/21 06:00:18;;;;;;;51.15;32.13;;;;;;;21.28;36.89;100365.34;5092109;28;20135;-40
2022/08/21 06:02:44;;;;;;;51.78;33.40;;;;;;;21.34;36.62;100353.50;5091361;28;20040;-41
2022/08/21 06:05:09;;;;;;;46.10;33.28;;;;;;;21.49;36.67;100352.47;5074385;28;20046;-44
2022/08/21 06:07:35;;;;;;;49.08;33.22;;;;;;;21.62;36.19;100368.31;5081406;28;20044;-42
2022/08/21 06:10:01;;;;;;;50.50;32.35;;;;;;;21.82;36.11;100355.41;5092209;28;20585;-42
2022/08/21 06:12:29;;;;;;;52.53;33.95;;;;;;;22.03;35.88;100360.19;5084235;28;20547;-44
2022/08/21 06:14:54;;;;;;;51.95;33.17;;;;;;;22.28;35.21;100360.97;5089090;28;20135;-43
2022/08/21 06:17:20;;;;;;;50.50;32.08;;;;;;;22.79;34.65;100345.72;5092754;28;20044;-44
2022/08/21 06:19:51;;;;;;;42.15;30.10;;;;;;;23.59;33.50;100333.44;5092337;28;20058;-43
2022/08/21 06:22:17;;;;;;;50.42;31.48;;;;;;;24.42;32.38;100346.31;5071060;28;20040;-43
2022/08/21 06:24:43;;;;;;;44.17;32.55;;;;;;;25.15;31.19;100340.25;5079456;28;20089;-44
2022/08/21 06:27:10;;;;;;;48.53;32.35;;;;;;;25.77;30.14;100340.22;5092459;28;20054;-46
2022/08/21 06:29:36;;;;;;;47.60;32.17;;;;;;;25.90;28.86;100348.00;5091071;28;20118;-45
2022/08/21 06:32:02;;;;;;;49.53;32.58;;;;;;;26.43;28.54;100343.28;5090571;28;20064;-44
2022/08/21 06:34:28;;;;;;;51.65;31.80;;;;;;;27.19;27.78;100342.47;5091303;28;20527;-44
2022/08/21 06:36:54;;;;;;;47.92;32.55;;;;;;;28.01;27.06;100339.97;5090792;28;20071;-45
2022/08/21 06:39:20;;;;;;;46.92;33.05;;;;;;;28.42;26.02;100306.53;5091824;28;20036;-45
2022/08/21 06:41:47;;;;;;;44.20;31.65;;;;;;;29.01;25.38;100337.22;5090516;28;20040;-48
2022/08/21 06:44:16;;;;;;;49.10;32.58;;;;;;;29.73;24.69;100344.13;5081379;28;20054;-46
2022/08/21 06:46:42;;;;;;;48.50;32.35;;;;;;;30.19;23.96;100343.69;5090274;28;20043;-44
2022/08/21 06:49:07;;;;;;;45.88;32.53;;;;;;;30.67;23.39;100320.69;5085573;28;20032;-46
2022/08/21 06:51:33;;;;;;;43.17;32.05;;;;;;;31.41;22.67;100308.88;5091277;28;20032;-50
2022/08/21 06:53:59;;;;;;;42.75;31.92;;;;;;;32.29;21.97;100337.34;5090981;28;20039;-44
2022/08/21 06:56:25;;;;;;;41.70;30.73;;;;;;;33.02;20.79;100336.06;5090915;28;20048;-46
2022/08/21 06:58:52;;;;;;;46.78;32.50;;;;;;;33.59;19.89;100339.91;5091906;28;20043;-45
2022/08/21 07:01:20;;;;;;;40.83;31.52;;;;;;;33.72;19.73;100339.28;5082272;28;20044;-45
2022/08/21 07:03:46;;;;;;;44.28;31.23;;;;;;;34.15;19.35;100336.72;5098117;28;20051;-43
2022/08/21 07:06:12;;;;;;;40.38;30.98;;;;;;;34.17;18.74;100327.41;5095744;28;20043;-44
2022/08/21 07:08:38;;;;;;;43.58;29.15;;;;;;;34.54;18.56;100333.69;5093608;28;20036;-46
2022/08/21 07:11:09;;;;;;;44.53;29.00;;;;;;;35.11;17.82;100329.06;5097405;28;20571;-47
2022/08/21 07:13:36;;;;;;;36.42;29.60;;;;;;;35.36;17.52;100321.38;5073457;28;20051;-45
2022/08/21 07:16:02;;;;;;;38.35;29.92;;;;;;;35.70;17.18;100325.16;5093057;28;20543;-46
2022/08/21 07:18:28;;;;;;;39.97;27.63;;;;;;;35.79;16.98;100324.78;5097567;28;20427;-46
2022/08/21 07:20:54;;;;;;;34.15;26.85;;;;;;;36.19;16.52;100323.09;5089135;28;20092;-43
2022/08/21 07:23:29;;;;;;;34.78;27.98;;;;;;;36.83;16.00;100311.81;5089837;28;20068;-42
2022/08/21 07:25:55;;;;;;;38.28;30.20;;;;;;;37.72;15.31;100320.31;5086623;28;20036;-43
2022/08/21 07:28:21;;;;;;;38.60;29.23;;;;;;;38.12;15.23;100323.72;5089402;28;20085;-43
2022/08/21 07:30:50;;;;;;;39.63;28.48;;;;;;;38.45;15.27;100320.88;5072452;28;20032;-44
2022/08/21 07:33:16;;;;;;;36.65;26.90;;;;;;;39.04;14.19;100315.03;5089024;28;20052;-44
2022/08/21 07:35:42;;;;;;;42.55;28.75;;;;;;;39.19;14.03;100331.00;5089685;28;20036;-42
2022/08/21 07:38:08;;;;;;;32.30;26.63;;;;;;;39.53;13.65;100325.03;5089838;28;20093;-43
2022/08/21 07:40:33;;;;;;;35.60;26.42;;;;;;;39.63;13.44;100319.06;5070172;28;20040;-43
2022/08/21 07:42:59;;;;;;;35.88;26.90;;;;;;;39.39;13.33;100323.50;5076974;28;20427;-42
2022/08/21 07:45:26;;;;;;;30.63;25.00;;;;;;;39.35;12.96;100314.13;5054847;28;20098;-42
2022/08/21 07:47:52;;;;;;;30.90;25.55;;;;;;;39.57;13.16;100322.72;5071422;28;20043;-45
2022/08/21 07:50:18;;;;;;;35.20;26.42;;;;;;;39.84;13.28;100323.25;5100279;28;20031;-38
2022/08/21 07:52:44;;;;;;;32.33;24.90;;;;;;;40.16;12.67;100302.94;5089910;28;20059;-40
2022/08/21 07:55:13;;;;;;;32.67;25.08;;;;;;;40.75;12.30;100317.63;5089444;28;20064;-42
2022/08/21 07:57:39;;;;;;;30.80;23.88;;;;;;;40.56;11.47;100314.97;5063171;28;20474;-40
2022/08/21 08:00:08;;;;;;;34.85;24.00;;;;;;;39.43;12.26;100311.13;5070381;28;20082;-41
2022/08/21 08:02:38;;;;;;;32.75;23.48;;;;;;;39.34;12.48;100312.47;5092192;28;20131;-40
2022/08/21 08:05:06;;;;;;;31.52;23.92;;;;;;;39.24;12.59;100323.00;5101584;28;20063;-41
2022/08/21 08:07:31;;;;;;;32.38;25.50;;;;;;;38.58;12.91;100312.63;5100413;28;20055;-40
2022/08/21 08:09:58;;;;;;;31.58;23.83;;;;;;;38.15;12.98;100310.56;5090990;28;20040;-40
2022/08/21 08:12:28;;;;;;;33.88;24.20;;;;;;;38.40;13.25;100279.91;5089560;28;20050;-41
2022/08/21 08:14:58;;;;;;;25.75;21.40;;;;;;;38.54;12.35;100295.91;5091759;28;20462;-42
2022/08/21 08:17:25;;;;;;;26.95;21.08;;;;;;;37.47;12.53;100287.59;5098538;28;20043;-40
2022/08/21 08:19:50;;;;;;;27.60;19.25;;;;;;;36.32;13.69;100293.38;5090364;28;20067;-40
2022/08/21 08:22:19;;;;;;;27.63;19.08;;;;;;;35.54;14.06;100286.50;5071240;28;20040;-40
2022/08/21 08:24:49;;;;;;;27.48;20.25;;;;;;;34.88;14.46;100268.97;5073474;28;20044;-40
2022/08/21 08:27:16;;;;;;;26.75;17.77;;;;;;;35.77;13.92;100277.28;5079577;28;20051;-43
2022/08/21 08:29:43;;;;;;;24.27;19.90;;;;;;;36.56;13.36;100272.97;5088219;28;20051;-41
2022/08/21 08:32:10;;;;;;;24.63;18.55;;;;;;;37.66;12.79;100270.41;5097306;28;20055;-41
2022/08/21 08:34:37;;;;;;;28.98;19.30;;;;;;;38.49;12.54;100273.16;5089763;28;20036;-40
2022/08/21 08:37:03;;;;;;;31.52;18.85;;;;;;;39.65;11.98;100265.22;5088242;28;20044;-40
2022/08/21 08:39:30;;;;;;;31.38;18.10;;;;;;;40.10;11.38;100268.41;5087313;28;20595;-41
2022/08/21 08:42:09;;;;;;;28.45;18.95;;;;;;;39.86;11.39;100253.88;5088273;28;20040;-42
2022/08/21 08:44:37;;;;;;;28.30;18.67;;;;;;;38.60;11.79;100258.03;5081300;28;20177;-40
2022/08/21 08:47:03;;;;;;;26.73;18.45;;;;;;;38.13;12.32;100258.31;5088790;28;20118;-40
2022/08/21 08:49:29;;;;;;;26.73;18.83;;;;;;;37.77;12.05;100263.50;5102645;28;20060;-39
2022/08/21 08:51:57;;;;;;;30.63;18.88;;;;;;;37.12;12.58;100250.91;5090211;28;20484;-40
2022/08/21 08:54:48;;;;;;;26.55;19.60;;;;;;;37.36;12.26;100263.81;5088675;28;20043;-40
2022/08/21 08:57:19;;;;;;;29.00;19.05;;;;;;;37.22;12.50;100264.84;5069410;28;20212;-41
2022/08/21 08:59:47;;;;;;;32.60;20.25;;;;;;;38.03;12.64;100246.25;5076260;28;20040;-41
2022/08/21 09:02:15;;;;;;;28.77;19.70;;;;;;;38.77;12.39;100251.00;5092184;28;20040;-41
2022/08/21 09:04:42;;;;;;;23.83;19.30;;;;;;;39.51;11.80;100258.28;5075400;28;20054;-40
2022/08/21 09:07:19;;;;;;;23.80;18.77;;;;;;;39.84;11.82;100258.72;5092178;28;20523;-41
2022/08/21 09:10:10;;;;;;;25.60;18.27;;;;;;;39.15;11.69;100254.41;5093407;28;20812;-40
2022/08/21 09:12:50;;;;;;;21.23;15.60;;;;;;;37.20;12.48;100259.66;5084640;28;20058;-40
2022/08/21 09:15:37;;;;;;;22.05;14.02;;;;;;;36.17;12.31;100243.94;5083622;28;20071;-41
2022/08/21 09:18:06;;;;;;;19.83;13.48;;;;;;;34.98;13.47;100265.94;5091886;28;20041;-41
2022/08/21 09:20:38;;;;;;;20.88;13.60;;;;;;;34.24;13.78;100244.66;5082968;28;20056;-40
2022/08/21 09:23:39;;;;;;;17.58;13.65;;;;;;;34.39;13.87;100223.81;5082973;28;20047;-40
2022/08/21 09:26:12;;;;;;;26.23;15.02;;;;;;;34.50;13.93;100244.06;5082173;28;20040;-40
2022/08/21 09:28:41;;;;;;;20.45;13.48;;;;;;;34.87;14.18;100248.38;5092950;28;20423;-40
2022/08/21 09:31:28;;;;;;;19.17;14.57;;;;;;;35.20;13.89;100241.38;5091173;28;20040;-41
2022/08/21 09:34:08;;;;;;;18.30;15.15;;;;;;;34.78;14.06;100242.28;5075253;28;20039;-40
2022/08/21 09:36:48;;;;;;;23.45;15.00;;;;;;;34.26;14.39;100234.50;5092953;28;20093;-40
2022/08/21 09:39:37;;;;;;;19.70;15.38;;;;;;;33.67;14.68;100225.66;5090149;28;20047;-40
2022/08/21 09:42:06;;;;;;;20.90;15.13;;;;;;;33.24;14.99;100231.94;5091610;28;20154;-39
2022/08/21 09:44:38;;;;;;;24.27;15.13;;;;;;;33.07;15.38;100232.09;5071462;28;20063;-40
2022/08/21 09:47:05;;;;;;;25.52;16.25;;;;;;;32.91;15.57;100234.09;5091543;28;20253;-39
2022/08/21 09:49:36;;;;;;;24.13;15.45;;;;;;;32.84;15.67;100236.69;5093232;28;20462;-40
2022/08/21 09:52:04;;;;;;;23.77;15.88;;;;;;;33.18;15.32;100238.91;5075122;28;20093;-40
2022/08/21 09:54:34;;;;;;;24.27;14.75;;;;;;;33.43;14.90;100226.81;5072517;28;20067;-40
2022/08/21 10:00:32;;;;;;;20.65;14.70;;;;;;;34.74;14.37;100256.38;5071039;28;20046;-39
2022/08/21 10:03:09;;;;;;;19.38;12.30;;;;;;;33.06;14.50;100226.88;5064150;28;20048;-39
2022/08/21 10:05:35;;;;;;;18.25;12.90;;;;;;;32.38;14.99;100236.72;5090903;28;20660;-39
2022/08/21 10:08:01;;;;;;;17.58;11.40;;;;;;;32.03;15.33;100236.41;5101468;28;20143;-39
2022/08/21 10:10:30;;;;;;;21.77;11.90;;;;;;;31.30;15.56;100225.97;5092029;28;20459;-39
2022/08/21 10:13:17;;;;;;;15.98;10.48;;;;;;;30.72;15.92;100224.38;5060534;28;20036;-39
2022/08/21 10:18:18;;;;;;;16.40;10.60;;;;;;;30.95;15.99;100224.47;5079161;27;20411;-54
2022/08/21 10:20:48;;;;;;;17.05;11.18;;;;;;;31.27;16.20;100221.75;5084181;28;20157;-55
2022/08/21 10:23:48;;;;;;;20.40;12.30;;;;;;;31.17;15.83;100205.00;5067224;28;20059;-53
2022/08/21 10:26:47;;;;;;;22.90;12.88;;;;;;;31.31;15.98;100203.44;5064183;28;20051;-55
2022/08/21 10:29:25;;;;;;;19.52;12.25;;;;;;;31.83;16.13;100206.41;5083196;28;20076;-51
2022/08/21 10:31:57;;;;;;;22.75;12.52;;;;;;;31.68;16.03;100217.09;5086217;28;20044;-52
2022/08/21 10:35:01;;;;;;;24.10;12.40;;;;;;;30.78;16.77;100210.22;5043188;28;20037;-54
2022/08/21 10:37:47;;;;;;;18.13;10.82;;;;;;;30.35;16.92;100213.25;5058121;28;20080;-54
2022/08/21 10:40:50;;;;;;;18.17;11.68;;;;;;;30.11;17.37;100206.84;5065820;28;20052;-52
2022/08/21 10:43:20;;;;;;;15.23;9.02;;;;;;;29.64;17.25;100208.34;5047159;28;20413;-49
2022/08/21 10:45:59;;;;;;;15.75;10.00;;;;;;;29.36;17.65;100173.75;5066937;28;20057;-52
2022/08/21 10:48:29;;;;;;;15.90;9.77;;;;;;;29.38;17.83;100216.47;5064983;28;20044;-52
2022/08/21 10:51:10;;;;;;;16.15;8.00;;;;;;;29.20;17.73;100211.16;5061549;28;20048;-51
2022/08/21 10:53:56;;;;;;;12.57;7.40;;;;;;;29.28;18.13;100211.19;5050161;28;20041;-53
2022/08/21 10:56:29;;;;;;;15.73;7.25;;;;;;;29.12;17.69;100192.34;5069225;28;20040;-52
2022/08/21 10:58:58;;;;;;;16.35;9.15;;;;;;;29.21;18.42;100209.28;5066948;28;20044;-52
2022/08/21 11:01:28;;;;;;;17.52;7.22;;;;;;;29.25;18.36;100205.31;5066399;28;20512;-51
2022/08/21 11:04:12;;;;;;;15.43;9.38;;;;;;;29.09;18.77;100195.38;5047491;28;20552;-54
2022/08/21 11:06:42;;;;;;;17.27;7.93;;;;;;;29.14;18.52;100201.09;5066026;28;20045;-50
2022/08/21 11:09:13;;;;;;;12.40;6.88;;;;;;;28.61;18.39;100150.34;5057218;28;20045;-48
2022/08/21 11:12:03;;;;;;;12.65;7.20;;;;;;;28.86;18.61;100191.53;5048161;28;20037;-49
2022/08/21 11:14:48;;;;;;;13.68;7.45;;;;;;;28.75;18.92;100189.94;5065805;28;20041;-49
2022/08/21 11:17:16;;;;;;;18.05;6.97;;;;;;;28.55;18.87;100165.19;5048564;28;20439;-49
2022/08/21 11:19:49;;;;;;;14.15;5.63;;;;;;;28.72;18.49;100189.41;5064970;28;20056;-48
2022/08/21 11:25:35;;;;;;;16.65;5.82;;;;;;;28.34;18.15;100178.06;5086078;28;20423;-50
2022/08/21 11:28:16;;;;;;;10.80;5.90;;;;;;;28.33;18.31;100176.38;5071022;28;20631;-48